createdAt,value
2019-03-25T00:00:24.027Z,63.17
2019-03-25T00:02:23.836Z,62.96
2019-03-25T00:04:24.210Z,62.79
2019-03-25T00:06:24.037Z,63.54
2019-03-25T00:08:24.194Z,63.43
2019-03-25T00:10:24.189Z,63.70
2019-03-25T00:12:24.161Z,62.94
2019-03-25T00:14:24.066Z,62.82
2019-03-25T00:16:24.400Z,62.77
2019-03-25T00:18:24.079Z,62.68
2019-03-25T00:20:24.202Z,62.39
2019-03-25T00:22:24.155Z,62.45
2019-03-25T00:24:24.110Z,62.33
2019-03-25T00:26:23.880Z,62.60
2019-03-25T00:28:23.948Z,62.36
2019-03-25T00:30:23.873Z,62.63
2019-03-25T00:32:24.179Z,62.72
2019-03-25T00:34:24.288Z,63.13
2019-03-25T00:36:24.016Z,63.04
2019-03-25T00:38:24.000Z,63.63
2019-03-25T00:40:24.152Z,64.08
2019-03-25T00:42:23.922Z,64.10
2019-03-25T00:44:24.151Z,64.80
2019-03-25T00:46:24.213Z,65.04
2019-03-25T00:48:24.149Z,65.29
2019-03-25T00:50:24.179Z,65.52
2019-03-25T00:52:24.100Z,65.68
2019-03-25T00:54:23.989Z,66.00
2019-03-25T00:56:24.005Z,65.74
2019-03-25T00:58:24.144Z,66.03
2019-03-25T01:00:24.094Z,65.92
2019-03-25T01:02:24.247Z,66.19
2019-03-25T01:04:23.885Z,66.11
2019-03-25T01:06:24.064Z,66.26
2019-03-25T01:08:23.970Z,66.54
2019-03-25T01:10:24.116Z,66.46
2019-03-25T01:12:23.993Z,66.71
2019-03-25T01:14:24.235Z,66.54
2019-03-25T01:16:24.330Z,66.81
2019-03-25T01:18:23.845Z,66.99
2019-03-25T01:20:23.984Z,67.35
2019-03-25T01:22:24.023Z,67.57
2019-03-25T01:24:24.173Z,67.55
2019-03-25T01:26:23.930Z,67.75
2019-03-25T01:28:23.962Z,67.84
2019-03-25T01:30:24.051Z,68.50
2019-03-25T01:32:24.116Z,68.50
2019-03-25T01:34:24.142Z,68.49
2019-03-25T01:36:24.345Z,68.43
2019-03-25T01:38:23.889Z,68.69
2019-03-25T01:40:23.960Z,68.38
2019-03-25T01:42:24.173Z,68.48
2019-03-25T01:44:24.190Z,68.75
2019-03-25T01:46:23.974Z,68.81
2019-03-25T01:48:24.114Z,68.99
2019-03-25T01:50:23.913Z,69.48
2019-03-25T01:52:24.224Z,69.51
2019-03-25T01:54:24.442Z,69.96
2019-03-25T01:56:23.981Z,69.68
2019-03-25T01:58:23.955Z,70.03
2019-03-25T02:00:24.075Z,70.78
2019-03-25T02:02:24.086Z,70.18
2019-03-25T02:04:24.222Z,71.01
2019-03-25T02:06:24.514Z,70.67
2019-03-25T02:08:24.292Z,70.62
2019-03-25T02:10:24.290Z,71.69
2019-03-25T02:12:24.250Z,71.58
2019-03-25T02:14:24.056Z,71.67
2019-03-25T02:16:23.948Z,72.12
2019-03-25T02:18:24.281Z,72.02
2019-03-25T02:20:26.730Z,72.14
2019-03-25T02:22:23.996Z,72.30
2019-03-25T02:24:24.415Z,72.40
2019-03-25T02:26:24.018Z,72.34
2019-03-25T02:28:24.231Z,72.65
2019-03-25T02:30:24.136Z,72.47
2019-03-25T02:32:24.467Z,72.62
2019-03-25T02:34:24.176Z,72.88
2019-03-25T02:36:24.287Z,73.98
2019-03-25T02:38:24.230Z,74.17
2019-03-25T02:40:24.305Z,74.17
2019-03-25T02:42:24.072Z,73.83
2019-03-25T02:44:24.227Z,74.54
2019-03-25T02:46:24.032Z,74.70
2019-03-25T02:48:24.372Z,74.61
2019-03-25T02:50:24.000Z,74.48
2019-03-25T02:52:24.478Z,74.40
2019-03-25T02:54:24.090Z,74.95
2019-03-25T02:56:24.095Z,74.65
2019-03-25T02:58:24.080Z,75.06
2019-03-25T03:00:24.062Z,75.24
2019-03-25T03:02:23.963Z,75.10
2019-03-25T03:04:24.079Z,75.05
2019-03-25T03:06:24.058Z,75.35
2019-03-25T03:08:24.270Z,74.95
2019-03-25T03:10:25.027Z,75.31
2019-03-25T03:12:24.395Z,75.65
2019-03-25T03:14:24.210Z,75.83
2019-03-25T03:16:24.326Z,75.94
2019-03-25T03:18:24.322Z,75.99
2019-03-25T03:20:24.235Z,75.84
2019-03-25T03:22:24.349Z,76.16
2019-03-25T03:24:24.361Z,75.76
2019-03-25T03:26:24.292Z,75.86
2019-03-25T03:28:24.487Z,75.73
2019-03-25T03:30:24.188Z,75.89
2019-03-25T03:32:24.001Z,76.17
2019-03-25T03:34:24.439Z,76.43
2019-03-25T03:36:24.159Z,76.50
2019-03-25T03:38:24.336Z,76.80
2019-03-25T03:40:24.354Z,76.20
2019-03-25T03:42:24.161Z,76.88
2019-03-25T03:44:24.250Z,76.53
2019-03-25T03:46:24.318Z,76.98
2019-03-25T03:48:24.058Z,76.69
2019-03-25T03:50:24.307Z,77.00
2019-03-25T03:52:24.289Z,76.92
2019-03-25T03:54:24.130Z,76.68
2019-03-25T03:56:24.135Z,77.18
2019-03-25T03:58:24.011Z,77.04
2019-03-25T04:00:24.114Z,77.17
2019-03-25T04:02:24.584Z,77.22
2019-03-25T04:04:24.389Z,77.81
2019-03-25T04:06:24.399Z,77.47
2019-03-25T04:08:23.913Z,77.42
2019-03-25T04:10:24.667Z,77.39
2019-03-25T04:12:24.125Z,77.34
2019-03-25T04:14:24.137Z,77.90
2019-03-25T04:16:24.149Z,77.70
2019-03-25T04:18:24.485Z,77.73
2019-03-25T04:20:24.041Z,77.62
2019-03-25T04:22:24.211Z,78.09
2019-03-25T04:24:24.100Z,78.14
2019-03-25T04:26:29.152Z,78.54
2019-03-25T04:28:24.217Z,78.68
2019-03-25T04:30:24.236Z,78.96
2019-03-25T04:32:24.349Z,78.98
2019-03-25T04:34:24.149Z,78.54
2019-03-25T04:36:24.385Z,79.14
2019-03-25T04:38:24.382Z,78.88
2019-03-25T04:40:24.602Z,79.14
2019-03-25T04:42:24.606Z,78.79
2019-03-25T04:44:24.307Z,79.06
2019-03-25T04:46:24.330Z,79.01
2019-03-25T04:48:24.443Z,79.30
2019-03-25T04:50:24.073Z,79.15
2019-03-25T04:52:24.135Z,79.39
2019-03-25T04:54:24.172Z,78.79
2019-03-25T04:56:24.128Z,78.69
2019-03-25T04:58:24.392Z,78.98
2019-03-25T05:00:24.307Z,78.96
2019-03-25T05:02:24.560Z,78.66
2019-03-25T05:04:24.288Z,78.91
2019-03-25T05:06:24.233Z,78.93
2019-03-25T05:08:23.979Z,78.84
2019-03-25T05:10:24.257Z,79.02
2019-03-25T05:12:24.204Z,78.99
2019-03-25T05:14:24.176Z,79.32
2019-03-25T05:16:24.203Z,79.53
2019-03-25T05:18:24.356Z,79.48
2019-03-25T05:20:24.425Z,79.59
2019-03-25T05:22:24.259Z,79.58
2019-03-25T05:24:24.091Z,79.06
2019-03-25T05:26:24.354Z,79.71
2019-03-25T05:28:24.258Z,79.32
2019-03-25T05:30:24.272Z,79.24
2019-03-25T05:32:24.282Z,79.18
2019-03-25T05:34:24.299Z,79.41
2019-03-25T05:36:24.072Z,79.54
2019-03-25T05:38:24.117Z,79.15
2019-03-25T05:40:24.224Z,79.05
2019-03-25T05:42:24.261Z,79.36
2019-03-25T05:44:24.252Z,79.29
2019-03-25T05:46:24.244Z,79.44
2019-03-25T05:48:24.113Z,79.32
2019-03-25T05:50:24.261Z,79.13
2019-03-25T05:52:24.609Z,79.77
2019-03-25T05:54:24.188Z,79.88
2019-03-25T05:56:24.221Z,79.94
2019-03-25T05:58:24.335Z,79.93
2019-03-25T06:00:24.245Z,79.80
2019-03-25T06:02:24.374Z,80.00
2019-03-25T06:04:24.047Z,80.19
2019-03-25T06:06:24.273Z,80.18
2019-03-25T06:08:24.012Z,80.06
2019-03-25T06:10:24.503Z,80.18
2019-03-25T06:12:24.109Z,79.84
2019-03-25T06:14:24.266Z,79.63
2019-03-25T06:16:24.207Z,80.00
2019-03-25T06:18:24.582Z,80.24
2019-03-25T06:20:24.254Z,80.51
2019-03-25T06:22:24.477Z,79.99
2019-03-25T06:24:24.032Z,79.86
2019-03-25T06:26:24.297Z,80.40
2019-03-25T06:28:24.401Z,79.98
2019-03-25T06:30:24.413Z,80.28
2019-03-25T06:32:24.535Z,79.81
2019-03-25T06:34:24.242Z,80.29
2019-03-25T06:36:24.349Z,80.01
2019-03-25T06:38:24.165Z,79.48
2019-03-25T06:40:24.138Z,79.74
2019-03-25T06:42:24.396Z,79.60
2019-03-25T06:44:24.198Z,79.58
2019-03-25T06:46:24.417Z,79.44
2019-03-25T06:48:24.184Z,79.41
2019-03-25T06:50:24.436Z,79.77
2019-03-25T06:52:24.649Z,79.07
2019-03-25T06:54:25.842Z,79.48
2019-03-25T06:56:24.467Z,79.30
2019-03-25T06:58:24.345Z,79.26
2019-03-25T07:00:24.286Z,79.12
2019-03-25T07:02:24.174Z,78.59
2019-03-25T07:04:24.201Z,78.70
2019-03-25T07:06:24.364Z,78.29
2019-03-25T07:08:24.340Z,77.71
2019-03-25T07:10:24.379Z,77.52
2019-03-25T07:12:24.455Z,77.09
2019-03-25T07:14:24.267Z,77.39
2019-03-25T07:16:24.589Z,76.77
2019-03-25T07:18:24.175Z,76.71
2019-03-25T07:20:24.411Z,76.35
2019-03-25T07:22:24.314Z,75.96
2019-03-25T07:24:24.040Z,75.98
2019-03-25T07:26:24.535Z,76.09
2019-03-25T07:28:24.373Z,76.47
2019-03-25T07:30:24.672Z,76.09
2019-03-25T07:32:24.364Z,77.30
2019-03-25T07:34:24.389Z,77.99
2019-03-25T07:36:24.093Z,78.02
2019-03-25T07:38:24.041Z,78.49
2019-03-25T07:40:24.230Z,79.09
2019-03-25T07:42:24.441Z,79.06
2019-03-25T07:44:24.232Z,79.91
2019-03-25T07:46:24.357Z,80.15
2019-03-25T07:48:24.255Z,80.14
2019-03-25T07:50:24.481Z,80.82
2019-03-25T07:52:24.321Z,81.14
2019-03-25T07:54:24.624Z,81.38
2019-03-25T07:56:24.413Z,81.78
2019-03-25T07:58:24.377Z,81.22
2019-03-25T08:00:24.444Z,81.75
2019-03-25T08:02:24.305Z,80.94
2019-03-25T08:04:24.190Z,80.89
2019-03-25T08:06:24.491Z,80.80
2019-03-25T08:08:24.516Z,80.69
2019-03-25T08:10:24.341Z,80.38
2019-03-25T08:12:25.320Z,78.62
2019-03-25T08:14:24.539Z,78.12
2019-03-25T08:16:24.531Z,75.89
2019-03-25T08:18:24.233Z,75.19
2019-03-25T08:20:24.343Z,73.47
2019-03-25T08:22:24.361Z,71.20
2019-03-25T08:24:24.403Z,70.88
2019-03-25T08:26:24.482Z,71.33
2019-03-25T08:28:24.250Z,70.44
2019-03-25T08:30:24.500Z,68.73
2019-03-25T08:32:24.411Z,67.88
2019-03-25T08:34:24.433Z,67.29
2019-03-25T08:36:24.438Z,66.38
2019-03-25T08:38:24.653Z,66.92
2019-03-25T08:40:24.396Z,66.28
2019-03-25T08:42:24.475Z,66.28
2019-03-25T08:44:24.479Z,65.74
2019-03-25T08:46:24.494Z,64.61
2019-03-25T08:48:24.517Z,65.00
2019-03-25T08:50:24.518Z,64.81
2019-03-25T08:52:24.342Z,63.29
2019-03-25T08:54:24.645Z,65.31
2019-03-25T08:56:24.547Z,67.17
2019-03-25T08:58:24.558Z,68.91
2019-03-25T09:00:24.373Z,69.72
2019-03-25T09:02:24.181Z,70.39
2019-03-25T09:04:24.595Z,68.65
2019-03-25T09:06:24.710Z,69.24
2019-03-25T09:08:24.422Z,68.42
2019-03-25T09:10:24.228Z,68.32
2019-03-25T09:12:24.248Z,66.56
2019-03-25T09:14:24.449Z,67.50
2019-03-25T09:16:24.677Z,65.74
2019-03-25T09:18:24.482Z,65.88
2019-03-25T09:20:24.259Z,65.20
2019-03-25T09:22:24.700Z,64.73
2019-03-25T09:24:27.081Z,63.69
2019-03-25T09:26:24.218Z,62.68
2019-03-25T09:28:27.224Z,60.43
2019-03-25T09:30:24.339Z,59.45
2019-03-25T09:32:24.275Z,58.49
2019-03-25T09:34:27.155Z,59.28
2019-03-25T09:36:24.386Z,58.11
2019-03-25T09:38:24.494Z,58.60
2019-03-25T09:40:24.500Z,56.92
2019-03-25T09:42:24.410Z,56.70
2019-03-25T09:44:24.422Z,56.50
2019-03-25T09:46:24.538Z,55.66
2019-03-25T09:48:24.546Z,55.29
2019-03-25T09:50:24.368Z,56.07
2019-03-25T09:52:24.479Z,56.52
2019-03-25T09:54:27.344Z,56.93
2019-03-25T09:56:24.367Z,57.49
2019-03-25T09:58:35.399Z,58.36
2019-03-25T10:00:24.415Z,60.02
2019-03-25T10:02:24.426Z,60.86
2019-03-25T10:04:24.282Z,62.50
2019-03-25T10:06:24.450Z,62.05
2019-03-25T10:08:24.463Z,62.05
2019-03-25T10:10:24.471Z,63.39
2019-03-25T10:12:24.484Z,61.69
2019-03-25T10:14:24.701Z,59.46
2019-03-25T10:16:24.717Z,59.25
2019-03-25T10:18:24.532Z,60.25
2019-03-25T10:20:24.329Z,61.30
2019-03-25T10:22:24.546Z,60.60
2019-03-25T10:24:27.845Z,61.21
2019-03-25T10:26:24.152Z,61.91
2019-03-25T10:28:24.193Z,62.77
2019-03-25T10:30:24.493Z,64.69
2019-03-25T10:32:24.494Z,67.20
2019-03-25T10:34:24.921Z,69.23
2019-03-25T10:36:24.524Z,71.40
2019-03-25T10:38:24.330Z,72.57
2019-03-25T10:40:24.550Z,71.06
2019-03-25T10:42:24.436Z,70.79
2019-03-25T10:44:24.665Z,69.54
2019-03-25T10:46:24.883Z,68.70
2019-03-25T10:48:24.426Z,68.42
2019-03-25T10:50:24.647Z,68.46
2019-03-25T10:52:24.271Z,65.38
2019-03-25T10:54:24.581Z,65.90
2019-03-25T10:56:24.641Z,64.98
2019-03-25T10:58:24.647Z,64.61
2019-03-25T11:00:24.658Z,66.07
2019-03-25T11:02:24.364Z,68.09
2019-03-25T11:04:24.687Z,69.63
2019-03-25T11:06:24.697Z,70.20
2019-03-25T11:08:24.712Z,71.10
2019-03-25T11:10:24.677Z,72.76
2019-03-25T11:12:24.457Z,73.24
2019-03-25T11:14:24.439Z,74.69
2019-03-25T11:16:24.545Z,75.71
2019-03-25T11:18:24.357Z,76.96
2019-03-25T11:20:24.478Z,79.17
2019-03-25T11:22:24.457Z,79.25
2019-03-25T11:24:24.715Z,80.78
2019-03-25T11:26:24.616Z,81.41
2019-03-25T11:28:24.581Z,82.04
2019-03-25T11:30:24.628Z,81.64
2019-03-25T11:32:24.549Z,81.80
2019-03-25T11:34:24.761Z,82.04
2019-03-25T11:36:24.567Z,82.37
2019-03-25T11:38:24.586Z,81.89
2019-03-25T11:40:24.789Z,81.45
2019-03-25T11:42:24.800Z,80.14
2019-03-25T11:44:24.358Z,79.41
2019-03-25T11:46:24.626Z,79.90
2019-03-25T11:48:24.736Z,79.71
2019-03-25T11:50:24.702Z,78.31
2019-03-25T11:52:24.600Z,78.97
2019-03-25T11:54:24.465Z,79.40
2019-03-25T11:56:24.781Z,79.03
2019-03-25T11:58:24.593Z,79.38
2019-03-25T12:00:24.685Z,79.98
2019-03-25T12:02:24.621Z,78.41
2019-03-25T12:04:24.471Z,78.98
2019-03-25T12:06:24.619Z,76.73
2019-03-25T12:08:24.756Z,75.31
2019-03-25T12:10:24.670Z,75.62
2019-03-25T12:12:24.776Z,75.55
2019-03-25T12:14:24.650Z,75.13
2019-03-25T12:16:24.700Z,72.91
2019-03-25T12:18:24.711Z,71.88
2019-03-25T12:20:24.812Z,69.58
2019-03-25T12:22:24.632Z,69.08
2019-03-25T12:24:24.668Z,68.54
2019-03-25T12:26:24.546Z,67.81
2019-03-25T12:28:24.781Z,69.15
2019-03-25T12:30:24.707Z,67.89
2019-03-25T12:32:24.697Z,68.08
2019-03-25T12:34:24.664Z,67.72
2019-03-25T12:36:24.677Z,66.19
2019-03-25T12:38:24.923Z,66.79
2019-03-25T12:40:24.411Z,65.93
2019-03-25T12:42:24.641Z,66.51
2019-03-25T12:44:24.654Z,64.92
2019-03-25T12:46:24.680Z,64.45
2019-03-25T12:48:24.884Z,65.73
2019-03-25T12:50:24.694Z,65.34
2019-03-25T12:52:24.453Z,62.73
2019-03-25T12:54:24.611Z,63.10
2019-03-25T12:56:24.628Z,61.51
2019-03-25T12:58:24.538Z,61.90
2019-03-25T13:00:24.956Z,61.43
2019-03-25T13:02:24.661Z,63.20
2019-03-25T13:04:24.777Z,66.26
2019-03-25T13:06:24.575Z,68.91
2019-03-25T13:08:32.828Z,70.61
2019-03-25T13:10:24.760Z,71.03
2019-03-25T13:12:24.729Z,72.72
2019-03-25T13:14:24.827Z,74.08
2019-03-25T13:16:24.654Z,74.19
2019-03-25T13:18:24.757Z,74.87
2019-03-25T13:20:24.766Z,72.90
2019-03-25T13:22:24.551Z,72.59
2019-03-25T13:24:24.903Z,72.81
2019-03-25T13:26:24.622Z,72.17
2019-03-25T13:28:24.923Z,72.28
2019-03-25T13:30:24.603Z,71.70
2019-03-25T13:32:24.936Z,70.95
2019-03-25T13:34:24.946Z,69.52
2019-03-25T13:36:24.861Z,69.75
2019-03-25T13:38:24.556Z,68.32
2019-03-25T13:40:24.677Z,67.47
2019-03-25T13:42:24.691Z,64.66
2019-03-25T13:44:25.008Z,65.31
2019-03-25T13:46:24.811Z,64.93
2019-03-25T13:48:24.714Z,65.40
2019-03-25T13:50:25.040Z,67.10
2019-03-25T13:52:24.773Z,67.39
2019-03-25T13:54:24.664Z,68.37
2019-03-25T13:56:24.664Z,69.67
2019-03-25T13:58:25.859Z,70.79
2019-03-25T14:00:24.486Z,71.41
2019-03-25T14:02:24.507Z,72.05
2019-03-25T14:04:24.772Z,71.79
2019-03-25T14:06:24.833Z,72.26
2019-03-25T14:08:24.633Z,72.65
2019-03-25T14:10:24.785Z,72.90
2019-03-25T14:12:24.560Z,73.14
2019-03-25T14:14:24.796Z,71.89
2019-03-25T14:16:24.511Z,71.90
2019-03-25T14:18:24.627Z,70.55
2019-03-25T14:20:24.624Z,69.46
2019-03-25T14:22:24.826Z,68.57
2019-03-25T14:24:24.729Z,67.74
2019-03-25T14:26:24.594Z,65.45
2019-03-25T14:28:24.693Z,65.56
2019-03-25T14:30:24.678Z,65.59
2019-03-25T14:32:24.779Z,63.48
2019-03-25T14:34:24.717Z,62.02
2019-03-25T14:36:25.006Z,62.31
2019-03-25T14:38:24.705Z,61.00
2019-03-25T14:40:25.612Z,61.70
2019-03-25T14:42:24.950Z,61.28
2019-03-25T14:44:24.747Z,61.17
2019-03-25T14:46:24.859Z,61.49
2019-03-25T14:48:24.673Z,60.97
2019-03-25T14:50:24.686Z,60.83
2019-03-25T14:52:24.649Z,60.78
2019-03-25T14:54:24.695Z,61.38
2019-03-25T14:56:24.712Z,61.46
2019-03-25T14:58:24.932Z,61.91
2019-03-25T15:00:25.349Z,62.76
2019-03-25T15:02:24.750Z,63.75
2019-03-25T15:04:24.757Z,63.72
2019-03-25T15:06:24.523Z,64.60
2019-03-25T15:08:24.995Z,64.78
2019-03-25T15:10:24.908Z,65.87
2019-03-25T15:12:24.806Z,66.75
2019-03-25T15:14:24.790Z,67.09
2019-03-25T15:16:24.727Z,68.04
2019-03-25T15:18:24.650Z,69.37
2019-03-25T15:20:24.853Z,70.00
2019-03-25T15:22:24.661Z,71.13
2019-03-25T15:24:24.878Z,71.48
2019-03-25T15:26:25.195Z,69.97
2019-03-25T15:28:25.104Z,69.48
2019-03-25T15:30:35.118Z,68.86
2019-03-25T15:32:24.622Z,67.55
2019-03-25T15:34:24.721Z,66.50
2019-03-25T15:36:24.851Z,66.38
2019-03-25T15:38:25.639Z,65.92
2019-03-25T15:40:25.177Z,65.52
2019-03-25T15:42:24.572Z,65.93
2019-03-25T15:44:24.805Z,66.19
2019-03-25T15:46:24.750Z,66.76
2019-03-25T15:48:24.718Z,67.50
2019-03-25T15:50:24.821Z,67.98
2019-03-25T15:52:24.842Z,68.79
2019-03-25T15:54:24.856Z,69.75
2019-03-25T15:56:24.752Z,70.53
2019-03-25T15:58:26.280Z,71.45
2019-03-25T16:00:24.887Z,71.91
2019-03-25T16:02:25.242Z,72.84
2019-03-25T16:04:24.909Z,72.81
2019-03-25T16:06:24.711Z,73.48
2019-03-25T16:08:25.146Z,73.43
2019-03-25T16:10:24.736Z,73.93
2019-03-25T16:12:24.860Z,72.98
2019-03-25T16:14:25.274Z,73.06
2019-03-25T16:16:24.963Z,72.60
2019-03-25T16:18:24.671Z,72.87
2019-03-25T16:20:25.220Z,73.31
2019-03-25T16:22:24.674Z,73.58
2019-03-25T16:24:24.821Z,73.20
2019-03-25T16:26:24.934Z,73.23
2019-03-25T16:28:25.154Z,73.30
2019-03-25T16:30:25.063Z,73.42
2019-03-25T16:32:25.392Z,74.17
2019-03-25T16:34:24.798Z,74.80
2019-03-25T16:36:24.796Z,75.19
2019-03-25T16:38:25.110Z,75.68
2019-03-25T16:40:25.328Z,75.61
2019-03-25T16:42:24.833Z,76.31
2019-03-25T16:44:24.838Z,76.26
2019-03-25T16:46:24.743Z,77.03
2019-03-25T16:48:24.854Z,77.37
2019-03-25T16:50:24.884Z,77.99
2019-03-25T16:52:24.644Z,78.07
2019-03-25T16:54:24.796Z,78.04
2019-03-25T16:56:24.816Z,78.50
2019-03-25T16:58:25.240Z,78.87
2019-03-25T17:00:27.642Z,78.58
2019-03-25T17:02:25.252Z,79.28
2019-03-25T17:04:25.268Z,79.65
2019-03-25T17:06:25.170Z,80.12
2019-03-25T17:08:24.613Z,81.00
2019-03-25T17:10:24.889Z,81.51
2019-03-25T17:12:24.766Z,81.89
2019-03-25T17:14:24.798Z,82.78
2019-03-25T17:16:24.614Z,82.79
2019-03-25T17:18:25.035Z,82.92
2019-03-25T17:20:25.145Z,83.25
2019-03-25T17:22:24.756Z,83.38
2019-03-25T17:24:24.972Z,83.60
2019-03-25T17:26:24.993Z,83.55
2019-03-25T17:28:24.840Z,84.10
2019-03-25T17:30:25.306Z,84.29
2019-03-25T17:32:24.814Z,84.35
2019-03-25T17:34:25.231Z,84.43
2019-03-25T17:36:24.784Z,84.66
2019-03-25T17:38:25.259Z,84.81
2019-03-25T17:40:24.898Z,85.16
2019-03-25T17:42:25.279Z,85.56
2019-03-25T17:44:25.394Z,85.22
2019-03-25T17:46:24.890Z,85.19
2019-03-25T17:48:24.910Z,85.79
2019-03-25T17:50:24.721Z,85.44
2019-03-25T17:52:24.827Z,85.97
2019-03-25T17:54:25.161Z,86.02
2019-03-25T17:56:24.962Z,86.03
2019-03-25T17:58:25.175Z,86.16
2019-03-25T18:00:25.845Z,86.46
2019-03-25T18:02:25.296Z,86.47
2019-03-25T18:04:25.306Z,86.49
2019-03-25T18:06:25.206Z,86.68
2019-03-25T18:08:25.220Z,87.08
2019-03-25T18:10:25.336Z,87.75
2019-03-25T18:12:25.566Z,87.24
2019-03-25T18:14:25.112Z,87.26
2019-03-25T18:16:25.231Z,87.09
2019-03-25T18:18:25.286Z,86.91
2019-03-25T18:20:25.404Z,86.71
2019-03-25T18:22:25.350Z,87.13
2019-03-25T18:24:25.437Z,86.75
2019-03-25T18:26:25.434Z,86.96
2019-03-25T18:28:25.354Z,86.85
2019-03-25T18:30:25.140Z,86.91
2019-03-25T18:32:25.049Z,86.94
2019-03-25T18:34:25.367Z,87.18
2019-03-25T18:36:25.312Z,86.96
2019-03-25T18:38:25.205Z,86.63
2019-03-25T18:40:25.423Z,86.61
2019-03-25T18:42:25.265Z,86.74
2019-03-25T18:44:25.249Z,85.90
2019-03-25T18:46:25.449Z,86.06
2019-03-25T18:48:25.264Z,85.67
2019-03-25T18:50:25.265Z,85.94
2019-03-25T18:52:25.281Z,86.20
2019-03-25T18:54:25.388Z,85.96
2019-03-25T18:56:25.308Z,86.38
2019-03-25T18:58:25.313Z,85.80
2019-03-25T19:00:25.324Z,86.49
2019-03-25T19:02:25.468Z,86.56
2019-03-25T19:04:27.337Z,86.45
2019-03-25T19:06:25.363Z,86.22
2019-03-25T19:08:25.297Z,86.66
2019-03-25T19:10:25.278Z,86.51
2019-03-25T19:12:25.495Z,86.66
2019-03-25T19:14:25.310Z,86.54
2019-03-25T19:16:25.453Z,86.54
2019-03-25T19:18:25.441Z,87.02
2019-03-25T19:20:25.330Z,86.88
2019-03-25T19:22:25.407Z,86.42
2019-03-25T19:24:25.495Z,86.48
2019-03-25T19:26:25.276Z,86.33
2019-03-25T19:28:25.183Z,86.06
2019-03-25T19:30:25.414Z,86.17
2019-03-25T19:32:25.413Z,86.04
2019-03-25T19:34:25.455Z,85.83
2019-03-25T19:36:25.444Z,85.42
2019-03-25T19:38:26.403Z,85.48
2019-03-25T19:40:25.316Z,85.71
2019-03-25T19:42:25.453Z,85.68
2019-03-25T19:44:25.398Z,84.86
2019-03-25T19:46:25.302Z,84.88
2019-03-25T19:48:25.309Z,84.68
2019-03-25T19:50:25.396Z,84.95
2019-03-25T19:52:25.474Z,85.08
2019-03-25T19:54:25.439Z,84.61
2019-03-25T19:56:25.371Z,84.49
2019-03-25T19:58:25.415Z,84.64
2019-03-25T20:00:25.287Z,84.37
2019-03-25T20:02:25.304Z,84.35
2019-03-25T20:04:25.406Z,83.98
2019-03-25T20:06:25.990Z,83.75
2019-03-25T20:08:25.420Z,84.08
2019-03-25T20:10:25.570Z,83.90
2019-03-25T20:12:25.459Z,83.95
2019-03-25T20:14:25.480Z,83.69
2019-03-25T20:16:25.296Z,83.59
2019-03-25T20:18:25.426Z,83.56
2019-03-25T20:20:25.518Z,83.54
2019-03-25T20:22:25.549Z,83.99
2019-03-25T20:24:25.414Z,83.82
2019-03-25T20:26:25.482Z,83.95
2019-03-25T20:28:25.576Z,83.81
2019-03-25T20:30:25.363Z,84.25
2019-03-25T20:32:31.560Z,84.40
2019-03-25T20:34:25.371Z,84.65
2019-03-25T20:36:24.960Z,84.37
2019-03-25T20:38:25.455Z,84.76
2019-03-25T20:40:24.852Z,84.59
2019-03-25T20:42:25.123Z,84.97
2019-03-25T20:44:24.976Z,85.08
2019-03-25T20:46:25.557Z,84.89
2019-03-25T20:48:25.319Z,84.95
2019-03-25T20:50:25.058Z,85.08
2019-03-25T20:52:24.888Z,84.99
2019-03-25T20:54:25.055Z,84.89
2019-03-25T20:56:25.463Z,85.28
2019-03-25T20:58:25.075Z,85.42
2019-03-25T21:00:25.078Z,85.48
2019-03-25T21:02:25.037Z,85.49
2019-03-25T21:04:24.783Z,85.75
2019-03-25T21:06:25.055Z,85.98
2019-03-25T21:08:25.145Z,85.87
2019-03-25T21:10:25.044Z,85.65
2019-03-25T21:12:24.874Z,85.86
2019-03-25T21:14:24.970Z,86.09
2019-03-25T21:16:24.943Z,86.20
2019-03-25T21:18:24.991Z,85.94
2019-03-25T21:20:25.234Z,86.08
2019-03-25T21:22:25.102Z,86.28
2019-03-25T21:24:25.112Z,86.45
2019-03-25T21:26:25.067Z,86.04
2019-03-25T21:28:25.137Z,86.37
2019-03-25T21:30:25.014Z,86.54
2019-03-25T21:32:25.026Z,86.25
2019-03-25T21:34:24.949Z,86.18
2019-03-25T21:36:25.106Z,86.05
2019-03-25T21:38:24.817Z,86.23
2019-03-25T21:40:25.150Z,85.81
2019-03-25T21:42:25.031Z,86.08
2019-03-25T21:44:25.082Z,86.11
2019-03-25T21:46:24.829Z,85.51
2019-03-25T21:48:25.219Z,85.52
2019-03-25T21:50:24.846Z,85.64
2019-03-25T21:52:25.098Z,85.06
2019-03-25T21:54:24.896Z,85.19
2019-03-25T21:56:25.171Z,84.87
2019-03-25T21:58:25.108Z,85.04
2019-03-25T22:00:24.842Z,84.92
2019-03-25T22:02:24.981Z,84.60
2019-03-25T22:04:24.976Z,84.68
2019-03-25T22:06:24.896Z,84.86
2019-03-25T22:08:25.030Z,84.53
2019-03-25T22:10:25.268Z,84.54
2019-03-25T22:12:25.088Z,84.75
2019-03-25T22:14:25.142Z,84.24
2019-03-25T22:16:24.957Z,84.32
2019-03-25T22:18:24.912Z,84.64
2019-03-25T22:20:24.878Z,84.41
2019-03-25T22:22:24.997Z,84.19
2019-03-25T22:24:25.011Z,84.01
2019-03-25T22:26:25.003Z,84.22
2019-03-25T22:28:25.015Z,83.99
2019-03-25T22:30:25.981Z,83.61
2019-03-25T22:32:25.133Z,83.57
2019-03-25T22:34:24.812Z,83.90
2019-03-25T22:36:24.877Z,83.62
2019-03-25T22:38:25.014Z,83.62
2019-03-25T22:40:25.070Z,83.72
2019-03-25T22:42:24.891Z,83.51
2019-03-25T22:44:25.215Z,83.42
2019-03-25T22:46:25.126Z,83.38
2019-03-25T22:48:24.972Z,83.28
2019-03-25T22:50:24.839Z,82.90
2019-03-25T22:52:25.015Z,83.04
2019-03-25T22:54:24.959Z,83.16
2019-03-25T22:56:24.935Z,83.54
2019-03-25T22:58:24.992Z,83.12
2019-03-25T23:00:24.929Z,83.33
2019-03-25T23:02:24.799Z,83.21
2019-03-25T23:04:25.230Z,83.58
2019-03-25T23:06:25.038Z,82.91
2019-03-25T23:08:25.047Z,83.43
2019-03-25T23:10:25.057Z,83.51
2019-03-25T23:12:25.068Z,83.24
2019-03-25T23:14:25.014Z,83.57
2019-03-25T23:16:24.845Z,82.95
2019-03-25T23:18:25.233Z,83.35
2019-03-25T23:20:25.113Z,83.65
2019-03-25T23:22:25.329Z,83.11
2019-03-25T23:24:25.038Z,82.59
2019-03-25T23:26:25.134Z,82.80
2019-03-25T23:28:25.060Z,83.42
2019-03-25T23:30:25.004Z,83.55
2019-03-25T23:32:25.181Z,83.70
2019-03-25T23:34:24.987Z,83.52
2019-03-25T23:36:24.904Z,83.51
2019-03-25T23:38:25.016Z,83.56
2019-03-25T23:40:24.966Z,83.85
2019-03-25T23:42:25.039Z,83.83
2019-03-25T23:44:25.054Z,84.17
2019-03-25T23:46:24.852Z,83.97
2019-03-25T23:48:25.069Z,83.56
2019-03-25T23:50:25.093Z,83.45
2019-03-25T23:52:25.092Z,84.09
2019-03-25T23:54:25.085Z,83.79
2019-03-25T23:56:25.154Z,84.09
2019-03-25T23:58:24.822Z,83.81
